createdAt,value
2018-01-07T00:02:01.401Z,5.90
2018-01-07T00:04:29.650Z,6.00
2018-01-07T00:06:57.130Z,6.00
2018-01-07T00:09:24.610Z,6.10
2018-01-07T00:11:52.082Z,6.10
2018-01-07T00:14:19.557Z,6.00
2018-01-07T00:16:47.029Z,6.00
2018-01-07T00:19:14.510Z,5.90
2018-01-07T00:21:41.984Z,5.90
2018-01-07T00:24:10.221Z,5.90
2018-01-07T00:26:37.651Z,5.90
2018-01-07T00:29:05.138Z,5.90
2018-01-07T00:31:32.613Z,5.90
2018-01-07T00:34:00.085Z,5.90
2018-01-07T00:36:28.281Z,5.80
2018-01-07T00:38:55.771Z,5.80
2018-01-07T00:41:23.245Z,5.80
2018-01-07T00:43:50.708Z,5.90
2018-01-07T00:46:18.143Z,5.90
2018-01-07T00:48:45.621Z,5.90
2018-01-07T00:51:13.056Z,5.80
2018-01-07T00:53:40.490Z,5.90
2018-01-07T00:56:08.788Z,5.90
2018-01-07T00:58:36.215Z,5.80
2018-01-07T01:01:03.700Z,5.90
2018-01-07T01:03:31.132Z,5.90
2018-01-07T01:05:58.616Z,5.90
2018-01-07T01:08:26.046Z,5.80
2018-01-07T01:10:53.510Z,5.80
2018-01-07T01:13:20.949Z,5.80
2018-01-07T01:15:48.398Z,5.80
2018-01-07T01:18:15.839Z,5.80
2018-01-07T01:20:43.286Z,5.80
2018-01-07T01:23:11.498Z,5.70
2018-01-07T01:25:38.939Z,5.70
2018-01-07T01:28:06.379Z,5.70
2018-01-07T01:30:34.591Z,5.70
2018-01-07T01:33:02.027Z,5.70
2018-01-07T01:35:29.470Z,5.60
2018-01-07T01:37:56.911Z,5.60
2018-01-07T01:40:25.128Z,5.60
2018-01-07T01:42:52.560Z,5.60
2018-01-07T01:45:19.999Z,5.60
2018-01-07T01:47:48.211Z,5.60
2018-01-07T01:50:15.658Z,5.50
2018-01-07T01:52:43.107Z,5.50
2018-01-07T01:55:10.546Z,5.50
2018-01-07T01:57:38.758Z,5.40
2018-01-07T02:00:06.195Z,5.40
2018-01-07T02:02:33.639Z,5.50
2018-01-07T02:05:01.079Z,5.50
2018-01-07T02:07:29.347Z,5.50
2018-01-07T02:09:56.787Z,5.50
2018-01-07T02:12:24.246Z,5.50
2018-01-07T02:14:51.689Z,5.40
2018-01-07T02:17:19.130Z,5.40
2018-01-07T02:19:46.571Z,5.30
2018-01-07T02:22:14.023Z,5.30
2018-01-07T02:24:41.459Z,5.30
2018-01-07T02:27:09.668Z,5.30
2018-01-07T02:29:37.111Z,5.30
2018-01-07T02:32:04.555Z,5.30
2018-01-07T02:34:31.990Z,5.30
2018-01-07T02:37:00.204Z,5.30
2018-01-07T02:39:27.642Z,5.30
2018-01-07T02:41:55.090Z,5.30
2018-01-07T02:44:23.298Z,5.40
2018-01-07T02:46:50.738Z,5.40
2018-01-07T02:49:18.174Z,5.40
2018-01-07T02:51:46.383Z,5.40
2018-01-07T02:54:13.836Z,5.40
2018-01-07T02:56:41.279Z,5.40
2018-01-07T02:59:08.721Z,5.40
2018-01-07T03:01:36.926Z,5.40
2018-01-07T03:04:04.368Z,5.40
2018-01-07T03:06:31.822Z,5.40
2018-01-07T03:08:59.263Z,5.40
2018-01-07T03:11:27.475Z,5.40
2018-01-07T03:13:54.913Z,5.40
2018-01-07T03:16:22.354Z,5.40
2018-01-07T03:18:49.798Z,5.40
2018-01-07T03:21:18.015Z,5.40
2018-01-07T03:23:45.459Z,5.40
2018-01-07T03:26:12.900Z,5.40
2018-01-07T03:28:40.338Z,5.40
2018-01-07T03:31:08.548Z,5.40
2018-01-07T03:33:35.987Z,5.40
2018-01-07T03:36:03.428Z,5.40
2018-01-07T03:38:31.635Z,5.40
2018-01-07T03:40:59.075Z,5.40
2018-01-07T03:43:26.514Z,5.40
2018-01-07T03:45:54.724Z,5.50
2018-01-07T03:48:22.167Z,5.50
2018-01-07T03:50:49.606Z,5.60
2018-01-07T03:53:17.815Z,5.60
2018-01-07T03:55:45.263Z,5.60
2018-01-07T03:58:12.706Z,5.60
2018-01-07T04:00:40.149Z,5.60
2018-01-07T04:03:08.354Z,5.60
2018-01-07T04:05:35.791Z,5.60
2018-01-07T04:08:03.244Z,5.60
2018-01-07T04:10:31.463Z,5.70
2018-01-07T04:12:58.898Z,5.70
2018-01-07T04:15:26.343Z,5.80
2018-01-07T04:17:53.799Z,5.80
2018-01-07T04:20:21.237Z,5.80
2018-01-07T04:22:49.439Z,5.70
2018-01-07T04:25:16.889Z,5.70
2018-01-07T04:27:44.326Z,5.70
2018-01-07T04:30:12.534Z,5.70
2018-01-07T04:32:39.981Z,5.70
2018-01-07T04:35:07.423Z,5.80
2018-01-07T04:37:34.867Z,5.80
2018-01-07T04:40:03.070Z,5.80
2018-01-07T04:42:30.513Z,5.80
2018-01-07T04:44:57.954Z,5.80
2018-01-07T04:47:26.159Z,5.80
2018-01-07T04:49:53.602Z,5.70
2018-01-07T04:52:21.042Z,5.80
2018-01-07T04:54:49.259Z,5.80
2018-01-07T04:57:16.699Z,5.80
2018-01-07T04:59:44.147Z,5.80
2018-01-07T05:02:11.946Z,5.80
2018-01-07T05:04:39.401Z,5.80
2018-01-07T05:07:06.838Z,5.80
2018-01-07T05:09:34.286Z,5.80
2018-01-07T05:12:01.728Z,5.80
2018-01-07T05:14:29.174Z,5.80
2018-01-07T05:16:57.418Z,5.80
2018-01-07T05:19:24.872Z,5.80
2018-01-07T05:21:52.311Z,5.80
2018-01-07T05:24:19.751Z,5.80
2018-01-07T05:26:47.200Z,5.80
2018-01-07T05:29:14.642Z,5.80
2018-01-07T05:31:42.078Z,5.80
2018-01-07T05:34:10.283Z,5.80
2018-01-07T05:36:37.728Z,5.80
2018-01-07T05:39:05.162Z,5.80
2018-01-07T05:41:33.375Z,5.80
2018-01-07T05:44:00.815Z,5.70
2018-01-07T05:46:28.258Z,5.80
2018-01-07T05:48:56.463Z,5.70
2018-01-07T05:51:23.906Z,5.70
2018-01-07T05:53:51.347Z,5.70
2018-01-07T05:56:19.561Z,5.70
2018-01-07T05:58:46.994Z,5.70
2018-01-07T06:01:14.435Z,5.70
2018-01-07T06:03:42.650Z,5.60
2018-01-07T06:06:10.102Z,5.60
2018-01-07T06:08:37.547Z,5.70
2018-01-07T06:11:04.982Z,5.70
2018-01-07T06:13:32.435Z,5.70
2018-01-07T06:16:00.641Z,5.70
2018-01-07T06:18:28.074Z,5.70
2018-01-07T06:20:55.531Z,5.70
2018-01-07T06:23:22.970Z,5.70
2018-01-07T06:25:51.186Z,5.70
2018-01-07T06:28:18.627Z,5.70
2018-01-07T06:30:46.071Z,5.70
2018-01-07T06:33:13.508Z,5.70
2018-01-07T06:35:41.730Z,5.70
2018-01-07T06:38:09.170Z,5.70
2018-01-07T06:40:36.639Z,5.70
2018-01-07T06:43:04.059Z,5.70
2018-01-07T06:45:32.267Z,5.60
2018-01-07T06:47:59.706Z,5.60
2018-01-07T06:50:27.171Z,5.70
2018-01-07T06:52:54.611Z,5.70
2018-01-07T06:55:22.050Z,5.70
2018-01-07T06:57:50.259Z,5.70
2018-01-07T07:00:17.707Z,5.70
2018-01-07T07:02:45.142Z,5.60
2018-01-07T07:05:13.350Z,5.60
2018-01-07T07:07:40.796Z,5.60
2018-01-07T07:10:08.235Z,5.60
2018-01-07T07:12:36.452Z,5.60
2018-01-07T07:15:03.894Z,5.60
2018-01-07T07:17:31.345Z,5.60
2018-01-07T07:19:58.787Z,5.60
2018-01-07T07:22:26.231Z,5.60
2018-01-07T07:24:54.443Z,5.60
2018-01-07T07:27:21.895Z,5.60
2018-01-07T07:29:49.336Z,5.60
2018-01-07T07:32:16.774Z,5.60
2018-01-07T07:34:44.982Z,5.70
2018-01-07T07:37:12.427Z,5.70
2018-01-07T07:39:39.876Z,5.70
2018-01-07T07:42:07.318Z,5.70
2018-01-07T07:44:35.528Z,5.70
2018-01-07T07:47:02.987Z,5.70
2018-01-07T07:49:30.425Z,5.80
2018-01-07T07:51:57.874Z,5.80
2018-01-07T07:54:25.306Z,5.80
2018-01-07T07:56:53.514Z,5.80
2018-01-07T07:59:20.954Z,5.80
2018-01-07T08:01:48.403Z,5.80
2018-01-07T08:04:16.613Z,5.80
2018-01-07T08:06:44.091Z,5.80
2018-01-07T08:09:11.544Z,5.90
2018-01-07T08:11:38.987Z,5.90
2018-01-07T08:14:06.431Z,5.90
2018-01-07T08:16:33.872Z,5.90
2018-01-07T08:19:01.332Z,5.90
2018-01-07T08:21:28.767Z,5.90
2018-01-07T08:23:56.993Z,5.90
2018-01-07T08:26:24.436Z,5.90
2018-01-07T08:28:51.890Z,5.90
2018-01-07T08:31:19.314Z,5.90
2018-01-07T08:33:47.531Z,5.90
2018-01-07T08:36:14.978Z,5.90
2018-01-07T08:38:42.424Z,5.90
2018-01-07T08:41:09.862Z,5.90
2018-01-07T08:43:38.072Z,5.90
2018-01-07T08:46:05.516Z,5.90
2018-01-07T08:48:32.960Z,5.90
2018-01-07T08:51:00.400Z,5.90
2018-01-07T08:53:28.619Z,6.00
2018-01-07T08:55:56.054Z,6.00
2018-01-07T08:58:23.506Z,6.00
2018-01-07T09:00:50.947Z,6.00
2018-01-07T09:03:19.154Z,6.00
2018-01-07T09:05:46.605Z,6.00
2018-01-07T09:08:14.052Z,6.00
2018-01-07T09:10:41.490Z,6.10
2018-01-07T09:13:09.707Z,6.10
2018-01-07T09:15:37.149Z,6.10
2018-01-07T09:18:04.596Z,6.20
2018-01-07T09:20:32.039Z,6.20
2018-01-07T09:22:59.494Z,6.20
2018-01-07T09:25:27.702Z,6.30
2018-01-07T09:27:55.150Z,6.30
2018-01-07T09:30:22.594Z,6.30
2018-01-07T09:32:50.035Z,6.30
2018-01-07T09:35:18.247Z,6.40
2018-01-07T09:37:45.685Z,6.40
2018-01-07T09:40:13.131Z,6.40
2018-01-07T09:42:40.575Z,6.50
2018-01-07T09:45:08.782Z,6.50
2018-01-07T09:47:36.220Z,6.50
2018-01-07T09:50:03.667Z,6.60
2018-01-07T09:52:31.105Z,6.60
2018-01-07T09:54:59.331Z,6.70
2018-01-07T09:57:26.763Z,6.60
2018-01-07T09:59:54.207Z,6.70
2018-01-07T10:02:22.414Z,6.80
2018-01-07T10:04:49.867Z,6.70
2018-01-07T10:07:17.302Z,6.80
2018-01-07T10:09:44.746Z,6.80
2018-01-07T10:12:12.967Z,6.90
2018-01-07T10:14:41.188Z,6.90
2018-01-07T10:17:09.390Z,6.90
2018-01-07T10:19:36.855Z,6.90
2018-01-07T10:22:04.276Z,7.00
2018-01-07T10:24:32.487Z,7.00
2018-01-07T10:26:59.930Z,7.00
2018-01-07T10:29:27.370Z,7.10
2018-01-07T10:31:55.579Z,7.10
2018-01-07T10:34:23.022Z,7.10
2018-01-07T10:36:50.466Z,7.10
2018-01-07T10:39:17.910Z,7.20
2018-01-07T10:41:46.123Z,7.20
2018-01-07T10:44:13.585Z,7.20
2018-01-07T10:46:41.015Z,7.30
2018-01-07T10:49:08.467Z,7.30
2018-01-07T10:51:35.915Z,7.30
2018-01-07T10:54:04.119Z,7.40
2018-01-07T10:56:31.568Z,7.30
2018-01-07T10:58:59.002Z,7.40
2018-01-07T11:01:32.942Z,7.40
2018-01-07T11:04:00.385Z,7.40
2018-01-07T11:06:27.822Z,7.40
2018-01-07T11:08:55.262Z,7.40
2018-01-07T11:11:23.475Z,7.40
2018-01-07T11:13:50.918Z,7.40
2018-01-07T11:16:18.362Z,7.40
2018-01-07T11:18:46.567Z,7.40
2018-01-07T11:21:14.025Z,7.40
2018-01-07T11:23:41.462Z,7.50
2018-01-07T11:26:08.903Z,7.50
2018-01-07T11:28:37.110Z,7.50
2018-01-07T11:31:04.575Z,7.50
2018-01-07T11:33:32.015Z,7.60
2018-01-07T11:35:59.466Z,7.60
2018-01-07T11:38:26.907Z,7.60
2018-01-07T11:40:55.122Z,7.60
2018-01-07T11:43:22.569Z,7.60
2018-01-07T11:45:50.003Z,7.60
2018-01-07T11:48:17.448Z,7.60
2018-01-07T11:50:45.651Z,7.70
2018-01-07T11:53:13.099Z,7.70
2018-01-07T11:55:40.538Z,7.70
2018-01-07T11:58:08.793Z,7.70
2018-01-07T12:00:36.218Z,7.70
2018-01-07T12:03:03.667Z,7.70
2018-01-07T12:05:31.111Z,7.70
2018-01-07T12:07:58.555Z,7.70
2018-01-07T12:10:26.002Z,7.70
2018-01-07T12:12:53.447Z,7.70
2018-01-07T12:15:21.654Z,7.70
2018-01-07T12:17:49.099Z,7.70
2018-01-07T12:20:16.544Z,7.70
2018-01-07T12:22:44.025Z,7.80
2018-01-07T12:25:11.455Z,7.80
2018-01-07T12:27:38.906Z,7.80
2018-01-07T12:30:07.111Z,7.80
2018-01-07T12:32:34.559Z,7.80
2018-01-07T12:35:02.041Z,7.80
2018-01-07T12:37:29.480Z,7.80
2018-01-07T12:39:56.932Z,7.80
2018-01-07T12:42:24.371Z,7.80
2018-01-07T12:44:51.806Z,7.80
2018-01-07T12:47:20.065Z,7.80
2018-01-07T12:49:47.490Z,7.80
2018-01-07T12:52:14.935Z,7.80
2018-01-07T12:54:42.425Z,7.80
2018-01-07T12:57:09.896Z,7.80
2018-01-07T12:59:37.377Z,7.80
2018-01-07T13:02:05.586Z,7.80
2018-01-07T13:04:33.051Z,7.80
2018-01-07T13:07:00.498Z,7.90
2018-01-07T13:09:27.949Z,7.90
2018-01-07T13:11:55.390Z,7.90
2018-01-07T13:14:22.881Z,7.90
2018-01-07T13:16:50.324Z,7.90
2018-01-07T13:19:17.773Z,7.90
2018-01-07T13:21:45.219Z,7.90
2018-01-07T13:24:12.658Z,7.90
2018-01-07T13:26:40.862Z,7.90
2018-01-07T13:29:08.355Z,7.90
2018-01-07T13:31:35.799Z,7.90
2018-01-07T13:34:03.247Z,7.90
2018-01-07T13:36:30.729Z,7.90
2018-01-07T13:38:58.210Z,7.90
2018-01-07T13:41:25.636Z,8.00
2018-01-07T13:43:53.125Z,8.00
2018-01-07T13:46:20.553Z,8.00
2018-01-07T13:48:48.074Z,7.90
2018-01-07T13:51:15.502Z,8.00
2018-01-07T13:53:43.714Z,7.90
2018-01-07T13:56:11.155Z,7.90
2018-01-07T13:58:38.598Z,7.90
2018-01-07T14:01:06.043Z,7.90
2018-01-07T14:03:34.250Z,7.90
2018-01-07T14:06:01.695Z,7.90
2018-01-07T14:08:29.185Z,7.90
2018-01-07T14:10:57.382Z,7.90
2018-01-07T14:13:24.826Z,7.90
2018-01-07T14:15:52.274Z,7.90
2018-01-07T14:18:19.711Z,7.90
2018-01-07T14:20:47.179Z,7.90
2018-01-07T14:23:14.645Z,7.90
2018-01-07T14:25:42.120Z,7.90
2018-01-07T14:28:09.546Z,7.90
2018-01-07T14:30:37.041Z,7.90
2018-01-07T14:33:04.475Z,7.90
2018-01-07T14:35:31.915Z,7.90
2018-01-07T14:37:59.370Z,7.90
2018-01-07T14:40:26.848Z,7.90
2018-01-07T14:42:54.274Z,7.90
2018-01-07T14:45:21.765Z,7.90
2018-01-07T14:47:49.195Z,7.90
2018-01-07T14:50:16.642Z,7.90
2018-01-07T14:52:44.082Z,7.90
2018-01-07T14:55:11.531Z,7.90
2018-01-07T14:57:38.966Z,7.90
2018-01-07T15:00:07.178Z,7.90
2018-01-07T15:02:34.661Z,7.90
2018-01-07T15:05:02.103Z,7.90
2018-01-07T15:07:29.593Z,7.90
2018-01-07T15:09:57.018Z,7.90
2018-01-07T15:12:24.458Z,7.90
2018-01-07T15:14:51.944Z,7.90
2018-01-07T15:17:19.374Z,7.90
2018-01-07T15:19:46.827Z,7.90
2018-01-07T15:22:14.311Z,7.90
2018-01-07T15:24:41.739Z,7.90
2018-01-07T15:27:09.183Z,7.90
2018-01-07T15:29:36.617Z,7.90
2018-01-07T15:32:04.827Z,7.80
2018-01-07T15:34:32.271Z,7.80
2018-01-07T15:36:59.716Z,7.80
2018-01-07T15:39:27.927Z,7.80
2018-01-07T15:41:55.427Z,7.80
2018-01-07T15:44:22.854Z,7.80
2018-01-07T15:46:50.336Z,7.80
2018-01-07T15:49:17.818Z,7.80
2018-01-07T15:51:46.057Z,7.80
2018-01-07T15:54:13.483Z,7.80
2018-01-07T15:56:40.979Z,7.80
2018-01-07T15:59:08.403Z,7.80
2018-01-07T16:01:35.855Z,7.80
2018-01-07T16:04:03.300Z,7.90
2018-01-07T16:06:30.798Z,7.80
2018-01-07T16:08:58.226Z,7.80
2018-01-07T16:11:25.713Z,7.80
2018-01-07T16:13:53.196Z,7.80
2018-01-07T16:16:20.677Z,7.80
2018-01-07T16:18:48.862Z,7.80
2018-01-07T16:21:16.362Z,7.80
2018-01-07T16:23:43.843Z,7.80
2018-01-07T16:26:12.102Z,7.90
2018-01-07T16:28:39.524Z,7.80
2018-01-07T16:31:06.974Z,7.80
2018-01-07T16:33:34.466Z,7.80
2018-01-07T16:36:01.891Z,7.80
2018-01-07T16:38:29.390Z,7.90
2018-01-07T16:40:56.861Z,7.90
2018-01-07T16:43:25.064Z,7.90
2018-01-07T16:45:52.540Z,7.90
2018-01-07T16:48:20.033Z,7.90
2018-01-07T16:50:47.496Z,7.90
2018-01-07T16:53:14.990Z,7.80
2018-01-07T16:55:42.475Z,7.90
2018-01-07T16:58:09.907Z,7.90
2018-01-07T17:00:37.403Z,7.90
2018-01-07T17:03:04.876Z,7.80
2018-01-07T17:05:32.352Z,7.80
2018-01-07T17:08:00.601Z,7.80
2018-01-07T17:10:28.085Z,7.80
2018-01-07T17:12:56.325Z,7.80
2018-01-07T17:15:23.788Z,7.80
2018-01-07T17:17:51.233Z,7.80
2018-01-07T17:20:18.709Z,7.80
2018-01-07T17:22:46.180Z,7.90
2018-01-07T17:25:13.610Z,7.80
2018-01-07T17:27:41.107Z,7.80
2018-01-07T17:30:09.359Z,7.80
2018-01-07T17:32:36.837Z,7.80
2018-01-07T17:35:05.078Z,7.80
2018-01-07T17:37:32.507Z,7.80
2018-01-07T17:40:00.756Z,7.80
2018-01-07T17:42:28.252Z,7.80
2018-01-07T17:44:55.733Z,7.80
2018-01-07T17:47:23.212Z,7.80
2018-01-07T17:49:51.467Z,7.80
2018-01-07T17:52:18.933Z,7.80
2018-01-07T17:54:47.316Z,7.80
2018-01-07T17:57:14.777Z,7.80
2018-01-07T17:59:42.258Z,7.80
2018-01-07T18:02:09.738Z,7.80
2018-01-07T18:04:37.225Z,7.80
2018-01-07T18:07:05.419Z,7.80
2018-01-07T18:09:33.681Z,7.80
2018-01-07T18:12:01.145Z,7.80
2018-01-07T18:14:28.625Z,7.80
2018-01-07T18:16:56.861Z,7.80
2018-01-07T18:19:24.341Z,7.80
2018-01-07T18:21:52.582Z,7.80
2018-01-07T18:24:20.066Z,7.80
2018-01-07T18:26:47.541Z,7.80
2018-01-07T18:29:15.794Z,7.80
2018-01-07T18:31:43.260Z,7.70
2018-01-07T18:34:10.742Z,7.80
2018-01-07T18:36:38.213Z,7.80
2018-01-07T18:39:05.694Z,7.70
2018-01-07T18:41:33.167Z,7.70
2018-01-07T18:44:00.650Z,7.70
2018-01-07T18:46:28.884Z,7.70
2018-01-07T18:48:56.361Z,7.70
2018-01-07T18:51:23.846Z,7.70
2018-01-07T18:53:52.098Z,7.70
2018-01-07T18:56:19.574Z,7.70
2018-01-07T18:58:47.830Z,7.70
2018-01-07T19:01:15.311Z,7.70
2018-01-07T19:03:43.557Z,7.70
2018-01-07T19:06:11.028Z,7.70
2018-01-07T19:08:38.523Z,7.70
2018-01-07T19:11:06.001Z,7.70
2018-01-07T19:13:33.468Z,7.70
2018-01-07T19:16:00.959Z,7.70
2018-01-07T19:18:28.433Z,7.70
2018-01-07T19:20:56.687Z,7.70
2018-01-07T19:23:24.166Z,7.70
2018-01-07T19:25:52.415Z,7.70
2018-01-07T19:28:19.895Z,7.70
2018-01-07T19:30:48.148Z,7.70
2018-01-07T19:33:15.625Z,7.70
2018-01-07T19:35:43.874Z,7.70
2018-01-07T19:38:11.358Z,7.70
2018-01-07T19:40:39.611Z,7.70
2018-01-07T19:43:07.086Z,7.70
2018-01-07T19:45:35.336Z,7.70
2018-01-07T19:48:02.822Z,7.70
2018-01-07T19:50:31.066Z,7.70
2018-01-07T19:52:58.550Z,7.70
2018-01-07T19:55:26.886Z,7.70
2018-01-07T19:57:54.365Z,7.70
2018-01-07T20:00:21.850Z,7.70
2018-01-07T20:02:50.099Z,7.70
2018-01-07T20:05:17.576Z,7.70
2018-01-07T20:07:45.825Z,7.70
2018-01-07T20:10:13.301Z,7.70
2018-01-07T20:12:41.547Z,7.80
2018-01-07T20:15:09.030Z,7.80
2018-01-07T20:17:36.505Z,7.80
2018-01-07T20:20:03.977Z,7.80
2018-01-07T20:22:31.461Z,7.80
2018-01-07T20:24:58.947Z,7.80
2018-01-07T20:27:26.430Z,7.80
2018-01-07T20:29:54.677Z,7.80
2018-01-07T20:32:22.158Z,7.80
2018-01-07T20:34:50.398Z,7.80
2018-01-07T20:37:17.882Z,7.80
2018-01-07T20:39:46.130Z,7.80
2018-01-07T20:42:13.612Z,7.80
2018-01-07T20:44:41.857Z,7.90
2018-01-07T20:47:09.338Z,7.90
2018-01-07T20:49:36.813Z,7.90
2018-01-07T20:52:05.074Z,7.90
2018-01-07T20:54:32.554Z,7.80
2018-01-07T20:57:00.809Z,7.90
2018-01-07T20:59:28.286Z,7.90
2018-01-07T21:01:56.534Z,7.90
2018-01-07T21:04:24.021Z,7.90
2018-01-07T21:06:51.508Z,7.90
2018-01-07T21:09:18.987Z,7.90
2018-01-07T21:11:46.469Z,7.90
2018-01-07T21:14:14.718Z,7.90
2018-01-07T21:16:42.202Z,7.90
2018-01-07T21:19:10.452Z,7.90
2018-01-07T21:21:37.935Z,7.90
2018-01-07T21:24:05.410Z,7.90
2018-01-07T21:26:33.673Z,7.90
2018-01-07T21:29:01.953Z,8.00
2018-01-07T21:31:30.191Z,7.90
2018-01-07T21:33:57.675Z,7.90
2018-01-07T21:36:25.145Z,8.00
2018-01-07T21:38:53.390Z,8.00
2018-01-07T21:41:20.871Z,8.00
2018-01-07T21:43:57.870Z,8.00
2018-01-07T21:46:36.108Z,8.00
2018-01-07T21:49:03.630Z,8.00
2018-01-07T21:51:31.072Z,8.00
2018-01-07T21:53:59.312Z,8.00
2018-01-07T21:56:26.794Z,8.00
2018-01-07T21:58:54.277Z,8.00
2018-01-07T22:09:57.663Z,8.00
2018-01-07T22:12:25.146Z,8.00
2018-01-07T22:14:52.678Z,8.00
2018-01-07T22:17:20.136Z,8.10
2018-01-07T22:19:47.623Z,8.00
2018-01-07T22:22:15.093Z,8.00
2018-01-07T22:24:43.333Z,8.00
2018-01-07T22:27:10.828Z,8.00
2018-01-07T22:29:39.079Z,8.10
2018-01-07T22:32:06.558Z,8.00
2018-01-07T22:34:34.979Z,8.10
2018-01-07T22:37:02.458Z,8.00
2018-01-07T22:39:29.950Z,8.10
2018-01-07T22:41:58.192Z,8.10
2018-01-07T22:44:25.682Z,8.10
2018-01-07T22:46:53.924Z,8.10
2018-01-07T22:49:21.388Z,8.10
2018-01-07T22:51:48.865Z,8.10
2018-01-07T22:54:17.132Z,8.10
2018-01-07T22:56:45.395Z,8.10
2018-01-07T22:59:12.874Z,8.10
2018-01-07T23:01:41.109Z,8.10
2018-01-07T23:04:08.604Z,8.10
2018-01-07T23:06:36.851Z,8.10
2018-01-07T23:09:04.339Z,8.10
2018-01-07T23:11:32.584Z,8.10
2018-01-07T23:14:00.072Z,8.10
2018-01-07T23:16:28.323Z,8.10
2018-01-07T23:18:55.815Z,8.10
2018-01-07T23:21:23.285Z,8.10
2018-01-07T23:23:50.773Z,8.10
2018-01-07T23:26:18.245Z,8.10
2018-01-07T23:28:45.721Z,8.10
2018-01-07T23:31:13.192Z,8.10
2018-01-07T23:33:41.438Z,8.10
2018-01-07T23:36:08.905Z,8.10
2018-01-07T23:38:36.385Z,8.10
2018-01-07T23:41:04.621Z,8.10
2018-01-07T23:43:32.097Z,8.10
2018-01-07T23:45:59.535Z,8.10
2018-01-07T23:48:27.013Z,8.10
2018-01-07T23:50:55.259Z,8.10
2018-01-07T23:53:22.734Z,8.10
2018-01-07T23:55:50.210Z,8.10
2018-01-07T23:58:18.404Z,8.10
